Accueil
METAR-TAF:

METAR-TAF

Aéroports :

Aéroport de Florence-Peretola

Florence, Italie

latitude: 43-48N, longitude: 011-12E, altitude: 40 m

Observation

Le bulletin a été fait il y a 43 minutes, à 03:20 UTC
Vent 3 kt de sud, variant entre sud-est et sud/sud-ouest
Température 6°C
Humidité 81%
Pression 1019 hPa
Visibilité 10 km ou plus
pas de nuages en-dessous de 1500 mètres et pas de cumulonimbus.

METAR: LIRQ 300320Z 17003KT 130V210 CAVOK 06/03 Q1019

Heure: 05:03 (04:03 UTC)

Prévision

Le bulletin a été fait il y a 5 heures et 3 minutes, à 23:00 UTC
Prévision valable du 30 à 00 UTC au 30 à 24 UTC
Vent 6 kt de sud-ouest
Visibilité 10 km ou plus
Nuages épars à une hauteur de 3000 ft

TAF: LIRQ 292300Z 3000/3024 23006KT 9999 SCT030

Observations et prévisions météorologiques de plus de 4000 aéroports (messages METAR et TAF).

Les stations disponibles sont représentées par des disques jaunes et rouges sur la carte.

Passer la souris dessus pour voir le nom de la station.

Cliquer dessus pour voir les observations et prévisions météorologiques.

Pour changer de carte: cliquez sur les boutons verts avec une croix noire pour zoomer, sur le bouton vert avec un tiret pour effectuer un zoom arrière, ou sur les flèches vertes pour les cartes adjacentes.


METAR-TAF: